Time;durP1;ratioP1;P1;durP2;ratioP2;P2;SDS_P1;SDS_P2;PMS_P1;PMS_P2;Temp;Humidity;BMP_temperature;BMP_pressure;BME280_temperature;BME280_humidity;BME280_pressure;Samples;Min_cycle;Max_cycle;Signal;HPM_P1;HPM_P2
2023/05/14 00:02:06;;;;;;;170.35;24.48;;;;;;;;;;5012271;28;20037;-47
2023/05/14 00:04:33;;;;;;;200.20;26.67;;;;;;;;;;5012306;28;20038;-47
2023/05/14 00:07:00;;;;;;;170.45;24.13;;;;;;;;;;5011926;28;20030;-48
2023/05/14 00:09:29;;;;;;;142.45;21.83;;;;;;;;;;5012229;28;20112;-52
2023/05/14 00:11:56;;;;;;;155.20;23.92;;;;;;;;;;5011655;28;20034;-46
2023/05/14 00:14:23;;;;;;;159.32;23.95;;;;;;;;;;5011889;28;20388;-47
2023/05/14 00:16:50;;;;;;;162.20;23.98;;;;;;;;;;4994606;28;20871;-50
2023/05/14 00:19:17;;;;;;;153.82;25.17;;;;;;;;;;4993080;28;20117;-52
2023/05/14 00:21:44;;;;;;;122.43;21.80;;;;;;;;;;5011685;28;20033;-47
2023/05/14 00:24:11;;;;;;;147.90;23.08;;;;;;;;;;4994523;28;20026;-47
2023/05/14 00:26:38;;;;;;;158.80;24.65;;;;;;;;;;5012392;28;20041;-47
2023/05/14 00:29:05;;;;;;;144.57;22.98;;;;;;;;;;5012987;28;20037;-51
2023/05/14 00:31:32;;;;;;;114.85;21.42;;;;;;;;;;4997186;28;20510;-49
2023/05/14 00:33:59;;;;;;;139.13;22.17;;;;;;;;;;5017216;28;20677;-48
2023/05/14 00:36:26;;;;;;;149.40;23.80;;;;;;;;;;5010358;28;20045;-47
2023/05/14 00:38:53;;;;;;;125.90;21.77;;;;;;;;;;5011879;28;20483;-47
2023/05/14 00:41:20;;;;;;;134.18;21.67;;;;;;;;;;5012054;28;20757;-48
2023/05/14 00:43:47;;;;;;;113.75;21.38;;;;;;;;;;5020951;28;20052;-48
2023/05/14 00:46:14;;;;;;;105.82;20.38;;;;;;;;;;5012206;28;20034;-45
2023/05/14 00:48:41;;;;;;;125.70;22.75;;;;;;;;;;4994479;28;20112;-45
2023/05/14 00:51:08;;;;;;;111.70;19.90;;;;;;;;;;5011833;28;20025;-46
2023/05/14 00:53:36;;;;;;;126.43;21.48;;;;;;;;;;5011662;28;20487;-46
2023/05/14 00:56:04;;;;;;;121.72;21.23;;;;;;;;;;5011452;28;20049;-48
2023/05/14 00:58:31;;;;;;;107.32;19.60;;;;;;;;;;5011866;28;20022;-48
2023/05/14 01:00:58;;;;;;;131.93;22.88;;;;;;;;;;5008911;28;20022;-47
2023/05/14 01:03:25;;;;;;;101.70;18.85;;;;;;;;;;5011558;28;20065;-48
2023/05/14 01:05:57;;;;;;;112.85;20.23;;;;;;;;;;4993894;28;20030;-49
2023/05/14 01:08:33;;;;;;;105.60;19.70;;;;;;;;;;5011552;28;20491;-46
2023/05/14 01:11:25;;;;;;;112.47;20.45;;;;;;;;;;5012540;28;20104;-49
2023/05/14 01:14:05;;;;;;;112.65;21.52;;;;;;;;;;5009456;28;20096;-50
2023/05/14 01:16:33;;;;;;;100.32;18.45;;;;;;;;;;5012134;28;20038;-47
2023/05/14 01:19:00;;;;;;;94.28;18.25;;;;;;;;;;5011864;28;20420;-46
2023/05/14 01:21:34;;;;;;;100.10;19.83;;;;;;;;;;5005420;28;20032;-47
2023/05/14 01:24:01;;;;;;;96.20;18.58;;;;;;;;;;5010492;28;20038;-49
2023/05/14 01:26:30;;;;;;;101.47;18.15;;;;;;;;;;5012025;28;20043;-51
2023/05/14 01:29:01;;;;;;;95.40;18.48;;;;;;;;;;5024759;28;20030;-52
2023/05/14 01:31:31;;;;;;;92.40;18.70;;;;;;;;;;5012141;28;20033;-51
2023/05/14 01:33:59;;;;;;;90.95;18.25;;;;;;;;;;5012195;28;20562;-47
2023/05/14 01:36:26;;;;;;;90.38;17.05;;;;;;;;;;5011707;28;20034;-46
2023/05/14 01:38:54;;;;;;;90.32;17.45;;;;;;;;;;5012169;28;20499;-46
2023/05/14 01:41:22;;;;;;;85.28;18.65;;;;;;;;;;5011632;28;20044;-46
2023/05/14 01:43:49;;;;;;;76.10;17.23;;;;;;;;;;5012071;28;20026;-49
2023/05/14 01:46:18;;;;;;;84.25;16.83;;;;;;;;;;5011862;28;20527;-51
2023/05/14 01:48:45;;;;;;;82.55;15.77;;;;;;;;;;5011863;28;20038;-52
2023/05/14 01:51:13;;;;;;;69.43;16.35;;;;;;;;;;5011868;28;20048;-46
2023/05/14 01:53:40;;;;;;;68.07;16.58;;;;;;;;;;5011849;28;20041;-47
2023/05/14 01:56:07;;;;;;;67.28;15.43;;;;;;;;;;5011801;28;20480;-46
2023/05/14 01:58:34;;;;;;;67.00;14.55;;;;;;;;;;5011793;28;20480;-52
2023/05/14 02:01:01;;;;;;;65.45;14.13;;;;;;;;;;5011702;28;20127;-52
2023/05/14 02:03:28;;;;;;;72.65;14.77;;;;;;;;;;5011505;28;20049;-49
2023/05/14 02:05:55;;;;;;;64.00;15.40;;;;;;;;;;5011565;28;20119;-50
2023/05/14 02:08:22;;;;;;;72.07;15.25;;;;;;;;;;5011763;28;20127;-46
2023/05/14 02:10:49;;;;;;;63.85;14.30;;;;;;;;;;5011333;28;20060;-49
2023/05/14 02:13:17;;;;;;;65.60;13.10;;;;;;;;;;5011696;28;20041;-49
2023/05/14 02:15:43;;;;;;;56.15;13.48;;;;;;;;;;5011575;28;20383;-53
2023/05/14 02:18:11;;;;;;;64.28;13.40;;;;;;;;;;5011690;28;20037;-49
2023/05/14 02:20:38;;;;;;;50.72;12.07;;;;;;;;;;5011149;28;20037;-49
2023/05/14 02:23:05;;;;;;;56.00;11.73;;;;;;;;;;5011329;28;20044;-47
2023/05/14 02:25:32;;;;;;;48.20;11.65;;;;;;;;;;5011608;28;20216;-49
2023/05/14 02:27:59;;;;;;;53.67;11.45;;;;;;;;;;5011653;28;20026;-46
2023/05/14 02:30:26;;;;;;;51.63;12.15;;;;;;;;;;5011552;28;20427;-48
2023/05/14 02:32:53;;;;;;;50.95;10.70;;;;;;;;;;5011383;28;20500;-46
2023/05/14 02:35:20;;;;;;;46.80;11.20;;;;;;;;;;5014400;28;20042;-49
2023/05/14 02:37:47;;;;;;;47.13;10.60;;;;;;;;;;5015043;28;20766;-46
2023/05/14 02:40:14;;;;;;;46.63;11.38;;;;;;;;;;5015380;28;20034;-50
2023/05/14 02:42:41;;;;;;;43.40;10.43;;;;;;;;;;5015204;28;20041;-46
2023/05/14 02:45:08;;;;;;;48.95;10.35;;;;;;;;;;5015296;28;20030;-49
2023/05/14 02:47:35;;;;;;;42.53;9.98;;;;;;;;;;5015367;28;20022;-54
2023/05/14 02:50:04;;;;;;;41.08;10.05;;;;;;;;;;5014967;28;20076;-51
2023/05/14 02:52:32;;;;;;;41.50;10.27;;;;;;;;;;5015127;28;20107;-52
2023/05/14 02:54:59;;;;;;;38.00;9.85;;;;;;;;;;5014957;28;20080;-54
2023/05/14 02:57:26;;;;;;;40.55;10.23;;;;;;;;;;5015089;28;20484;-49
2023/05/14 02:59:53;;;;;;;38.00;10.40;;;;;;;;;;5014829;28;20500;-49
2023/05/14 03:02:20;;;;;;;41.85;9.82;;;;;;;;;;5014796;28;20399;-51
2023/05/14 03:04:47;;;;;;;45.20;10.95;;;;;;;;;;5014576;28;20076;-47
2023/05/14 03:07:14;;;;;;;32.33;9.27;;;;;;;;;;5014930;28;20030;-46
2023/05/14 03:09:41;;;;;;;32.47;8.65;;;;;;;;;;5014608;28;20124;-51
2023/05/14 03:12:08;;;;;;;30.40;8.63;;;;;;;;;;5013790;28;20476;-46
2023/05/14 03:14:35;;;;;;;40.15;10.05;;;;;;;;;;5013770;28;20026;-48
2023/05/14 03:17:02;;;;;;;42.33;9.60;;;;;;;;;;4996167;28;20129;-51
2023/05/14 03:19:29;;;;;;;52.40;10.15;;;;;;;;;;5014020;28;20029;-45
2023/05/14 03:21:56;;;;;;;55.60;9.57;;;;;;;;;;5014214;28;20113;-52
2023/05/14 03:24:23;;;;;;;59.75;10.07;;;;;;;;;;5011053;28;20030;-48
2023/05/14 03:26:50;;;;;;;53.00;8.63;;;;;;;;;;4986291;28;20025;-54
2023/05/14 03:29:17;;;;;;;50.08;9.15;;;;;;;;;;5000818;28;20030;-52
2023/05/14 03:31:45;;;;;;;57.33;10.15;;;;;;;;;;4994171;28;20038;-45
2023/05/14 03:34:12;;;;;;;45.17;8.85;;;;;;;;;;5007977;28;20492;-50
2023/05/14 03:36:39;;;;;;;37.80;8.55;;;;;;;;;;4995903;28;20038;-46
2023/05/14 03:39:06;;;;;;;46.63;8.32;;;;;;;;;;5010271;28;20109;-45
2023/05/14 03:41:33;;;;;;;47.35;8.57;;;;;;;;;;5012558;28;20049;-49
2023/05/14 03:44:00;;;;;;;51.88;8.98;;;;;;;;;;5013621;28;20076;-49
2023/05/14 03:46:27;;;;;;;65.15;10.73;;;;;;;;;;5012959;28;20030;-46
2023/05/14 03:48:54;;;;;;;54.03;9.02;;;;;;;;;;5013602;28;20038;-46
2023/05/14 03:51:21;;;;;;;50.55;8.88;;;;;;;;;;5013609;28;20415;-49
2023/05/14 03:53:48;;;;;;;48.92;8.82;;;;;;;;;;5013550;28;20037;-45
2023/05/14 03:56:15;;;;;;;48.92;7.78;;;;;;;;;;5013027;28;20033;-48
2023/05/14 03:58:41;;;;;;;48.78;7.90;;;;;;;;;;5013268;28;20088;-45
2023/05/14 04:01:08;;;;;;;43.72;8.00;;;;;;;;;;5012971;28;20034;-46
2023/05/14 04:03:35;;;;;;;45.33;7.63;;;;;;;;;;5013152;28;20395;-46
2023/05/14 04:06:02;;;;;;;48.47;7.78;;;;;;;;;;5013166;28;20037;-45
2023/05/14 04:08:29;;;;;;;46.15;7.55;;;;;;;;;;5013052;28;20026;-45
2023/05/14 04:10:56;;;;;;;45.10;7.88;;;;;;;;;;5009568;28;20392;-48
2023/05/14 04:13:23;;;;;;;40.75;7.03;;;;;;;;;;5010998;28;20026;-45
2023/05/14 04:15:50;;;;;;;45.63;8.13;;;;;;;;;;5007184;28;20048;-46
2023/05/14 04:18:17;;;;;;;56.25;7.90;;;;;;;;;;5012775;28;20549;-46
2023/05/14 04:20:44;;;;;;;43.33;6.93;;;;;;;;;;5012954;28;20030;-46
2023/05/14 04:23:11;;;;;;;35.63;7.28;;;;;;;;;;5012753;28;20112;-46
2023/05/14 04:25:38;;;;;;;35.22;6.53;;;;;;;;;;5012949;28;20089;-46
2023/05/14 04:28:05;;;;;;;28.48;6.32;;;;;;;;;;5012605;28;20036;-49
2023/05/14 04:30:32;;;;;;;43.70;7.13;;;;;;;;;;5012740;28;20034;-48
2023/05/14 04:32:59;;;;;;;29.20;6.13;;;;;;;;;;5012662;28;20036;-48
2023/05/14 04:35:26;;;;;;;34.78;5.40;;;;;;;;;;5012695;28;20384;-45
2023/05/14 04:37:53;;;;;;;28.98;5.78;;;;;;;;;;5012312;28;20080;-48
2023/05/14 04:40:21;;;;;;;30.90;6.57;;;;;;;;;;5012672;28;20034;-50
2023/05/14 04:42:48;;;;;;;29.27;6.55;;;;;;;;;;5012631;28;20025;-48
2023/05/14 04:45:16;;;;;;;31.80;6.20;;;;;;;;;;5012564;28;20037;-46
2023/05/14 04:47:43;;;;;;;34.55;5.90;;;;;;;;;;5012404;28;20034;-45
2023/05/14 04:50:11;;;;;;;29.45;5.50;;;;;;;;;;5012253;28;20041;-45
2023/05/14 04:52:38;;;;;;;26.35;5.63;;;;;;;;;;5012295;28;20026;-46
2023/05/14 04:55:05;;;;;;;28.13;5.93;;;;;;;;;;5012310;28;20403;-52
2023/05/14 04:57:32;;;;;;;27.35;5.32;;;;;;;;;;5011102;28;20049;-50
2023/05/14 04:59:59;;;;;;;30.02;5.25;;;;;;;;;;5012270;28;20041;-49
2023/05/14 05:02:26;;;;;;;34.33;6.15;;;;;;;;;;5012060;28;20022;-51
2023/05/14 05:04:53;;;;;;;30.60;5.75;;;;;;;;;;5012107;28;20042;-51
2023/05/14 05:07:20;;;;;;;24.83;5.72;;;;;;;;;;4994482;28;20124;-52
2023/05/14 05:09:47;;;;;;;28.13;5.50;;;;;;;;;;5012137;28;20045;-50
2023/05/14 05:12:14;;;;;;;26.42;5.05;;;;;;;;;;5011549;28;20396;-46
2023/05/14 05:14:41;;;;;;;29.23;5.40;;;;;;;;;;4994584;28;20361;-46
2023/05/14 05:17:08;;;;;;;24.15;5.30;;;;;;;;;;5011958;28;20030;-45
2023/05/14 05:19:35;;;;;;;27.77;5.55;;;;;;;;;;5012000;28;20449;-49
2023/05/14 05:22:02;;;;;;;26.02;5.00;;;;;;;;;;5011650;28;20061;-51
2023/05/14 05:24:29;;;;;;;23.45;5.13;;;;;;;;;;5011731;28;20084;-49
2023/05/14 05:26:56;;;;;;;28.10;5.57;;;;;;;;;;5011740;28;20034;-50
2023/05/14 05:29:25;;;;;;;23.25;5.65;;;;;;;;;;5011719;28;20041;-51
2023/05/14 05:31:52;;;;;;;22.10;4.97;;;;;;;;;;5011571;28;20118;-50
2023/05/14 05:34:19;;;;;;;20.85;4.38;;;;;;;;;;5011711;28;20038;-46
2023/05/14 05:36:46;;;;;;;17.38;4.28;;;;;;;;;;5011464;28;20113;-46
2023/05/14 05:39:13;;;;;;;22.35;5.43;;;;;;;;;;5011532;28;20041;-47
2023/05/14 05:41:40;;;;;;;18.02;4.30;;;;;;;;;;5011602;28;20080;-46
2023/05/14 05:44:07;;;;;;;16.17;4.60;;;;;;;;;;4993603;28;20025;-48
2023/05/14 05:46:34;;;;;;;17.88;4.35;;;;;;;;;;5011477;28;20030;-49
2023/05/14 05:49:01;;;;;;;21.20;4.63;;;;;;;;;;5011565;28;20030;-53
2023/05/14 05:51:29;;;;;;;18.52;4.70;;;;;;;;;;5011367;28;20025;-48
2023/05/14 05:53:56;;;;;;;23.27;4.65;;;;;;;;;;5011355;28;20034;-47
2023/05/14 05:56:22;;;;;;;14.90;4.97;;;;;;;;;;5011261;28;20104;-46
2023/05/14 05:58:50;;;;;;;13.00;4.15;;;;;;;;;;5010980;28;20056;-48
2023/05/14 06:01:17;;;;;;;17.23;4.63;;;;;;;;;;5004651;28;20041;-47
2023/05/14 06:03:44;;;;;;;16.00;3.95;;;;;;;;;;4993089;28;20046;-47
2023/05/14 06:06:11;;;;;;;12.25;3.92;;;;;;;;;;5011036;28;20037;-46
2023/05/14 06:08:38;;;;;;;17.83;4.40;;;;;;;;;;5010880;28;20036;-47
2023/05/14 06:11:05;;;;;;;11.25;4.07;;;;;;;;;;5011041;28;20041;-47
2023/05/14 06:13:32;;;;;;;9.52;3.83;;;;;;;;;;5011022;28;20140;-46
2023/05/14 06:15:59;;;;;;;17.52;4.20;;;;;;;;;;5010953;28;20030;-45
2023/05/14 06:18:26;;;;;;;13.50;4.07;;;;;;;;;;5011060;28;20147;-47
2023/05/14 06:20:55;;;;;;;15.05;4.25;;;;;;;;;;5011025;28;20096;-48
2023/05/14 06:23:22;;;;;;;14.23;3.92;;;;;;;;;;5011082;28;20439;-48
2023/05/14 06:25:52;;;;;;;12.90;3.42;;;;;;;;;;5011014;28;20026;-50
2023/05/14 06:28:19;;;;;;;14.93;4.00;;;;;;;;;;4992775;28;20498;-49
2023/05/14 06:30:46;;;;;;;12.30;3.53;;;;;;;;;;5011049;28;20026;-46
2023/05/14 06:33:13;;;;;;;15.35;3.78;;;;;;;;;;5010973;28;20037;-47
2023/05/14 06:35:40;;;;;;;11.80;3.58;;;;;;;;;;5010871;28;20512;-49
2023/05/14 06:38:07;;;;;;;11.13;3.53;;;;;;;;;;5010836;28;20038;-48
2023/05/14 06:40:34;;;;;;;13.80;3.05;;;;;;;;;;5010692;28;20025;-49
2023/05/14 06:43:01;;;;;;;11.98;3.58;;;;;;;;;;5010750;28;20492;-49
2023/05/14 06:45:28;;;;;;;14.05;3.45;;;;;;;;;;5010881;28;20041;-50
2023/05/14 06:47:55;;;;;;;7.85;3.10;;;;;;;;;;5010492;28;20506;-49
2023/05/14 06:50:22;;;;;;;13.20;3.17;;;;;;;;;;5010666;28;20155;-50
2023/05/14 06:52:49;;;;;;;12.95;3.13;;;;;;;;;;5010503;28;20502;-46
2023/05/14 06:55:16;;;;;;;11.32;3.10;;;;;;;;;;5010605;28;20040;-49
2023/05/14 06:57:43;;;;;;;11.20;3.60;;;;;;;;;;5010617;28;20045;-48
2023/05/14 07:00:11;;;;;;;11.63;3.00;;;;;;;;;;5010556;28;20026;-46
2023/05/14 07:02:38;;;;;;;15.20;3.63;;;;;;;;;;5010507;28;20030;-46
2023/05/14 07:05:05;;;;;;;12.25;3.38;;;;;;;;;;5010533;28;20032;-53
2023/05/14 07:07:32;;;;;;;10.55;3.05;;;;;;;;;;5010570;28;20030;-48
2023/05/14 07:09:59;;;;;;;10.38;2.95;;;;;;;;;;5010575;28;20033;-48
2023/05/14 07:12:26;;;;;;;13.05;3.00;;;;;;;;;;5010412;28;20033;-48
2023/05/14 07:14:53;;;;;;;12.00;3.00;;;;;;;;;;5010403;28;20026;-48
2023/05/14 07:17:20;;;;;;;9.90;3.03;;;;;;;;;;4992931;28;20408;-50
2023/05/14 07:19:47;;;;;;;15.45;3.25;;;;;;;;;;5010829;28;20083;-48
2023/05/14 07:22:14;;;;;;;11.77;2.95;;;;;;;;;;5013719;28;20088;-49
2023/05/14 07:24:41;;;;;;;11.63;3.15;;;;;;;;;;5014107;28;20469;-47
2023/05/14 07:27:08;;;;;;;11.88;2.80;;;;;;;;;;5013997;28;20430;-46
2023/05/14 07:29:35;;;;;;;9.63;2.97;;;;;;;;;;5013862;28;20483;-48
2023/05/14 07:32:02;;;;;;;10.65;3.13;;;;;;;;;;5013750;28;20427;-50
2023/05/14 07:34:29;;;;;;;11.13;3.10;;;;;;;;;;5013851;28;20082;-48
2023/05/14 07:36:56;;;;;;;10.18;3.00;;;;;;;;;;5013759;28;20065;-48
2023/05/14 07:39:23;;;;;;;11.38;3.17;;;;;;;;;;5013728;28;20026;-52
2023/05/14 07:41:50;;;;;;;14.18;3.55;;;;;;;;;;5013652;28;20047;-49
2023/05/14 07:44:17;;;;;;;13.55;2.80;;;;;;;;;;5013515;28;20022;-47
2023/05/14 07:46:44;;;;;;;10.43;2.97;;;;;;;;;;5013362;28;20014;-49
2023/05/14 07:49:11;;;;;;;12.57;2.85;;;;;;;;;;5013574;28;20030;-49
2023/05/14 07:51:38;;;;;;;8.93;2.95;;;;;;;;;;5013449;28;20038;-51
2023/05/14 07:54:05;;;;;;;8.30;2.92;;;;;;;;;;5013627;28;20591;-46
2023/05/14 07:56:32;;;;;;;13.88;3.10;;;;;;;;;;5013101;28;20261;-49
2023/05/14 07:58:59;;;;;;;9.38;2.60;;;;;;;;;;5013428;28;20085;-52
2023/05/14 08:01:26;;;;;;;10.20;3.10;;;;;;;;;;5013328;28;20051;-48
2023/05/14 08:03:53;;;;;;;11.77;3.00;;;;;;;;;;5013206;28;20054;-49
2023/05/14 08:06:21;;;;;;;8.52;2.80;;;;;;;;;;5013316;28;20055;-48
2023/05/14 08:08:48;;;;;;;10.85;3.00;;;;;;;;;;5013342;28;20021;-46
2023/05/14 08:11:15;;;;;;;10.77;2.90;;;;;;;;;;5012644;28;20129;-46
2023/05/14 08:13:42;;;;;;;7.78;2.80;;;;;;;;;;5013207;28;20038;-47
2023/05/14 08:16:10;;;;;;;13.88;3.05;;;;;;;;;;5013136;28;20515;-49
2023/05/14 08:18:37;;;;;;;13.52;2.92;;;;;;;;;;5013086;28;20030;-48
2023/05/14 08:21:04;;;;;;;9.25;2.80;;;;;;;;;;5012877;28;20038;-49
2023/05/14 08:23:31;;;;;;;12.10;3.08;;;;;;;;;;5012848;28;20049;-46
2023/05/14 08:25:58;;;;;;;13.48;3.60;;;;;;;;;;5012996;28;20117;-46
2023/05/14 08:28:25;;;;;;;15.10;3.42;;;;;;;;;;5012927;28;20618;-45
2023/05/14 08:30:52;;;;;;;10.32;3.40;;;;;;;;;;5012725;28;20041;-48
2023/05/14 08:33:19;;;;;;;12.18;3.03;;;;;;;;;;5012780;28;20491;-47
2023/05/14 08:35:46;;;;;;;11.13;3.00;;;;;;;;;;5012825;28;20062;-46
2023/05/14 08:38:13;;;;;;;12.55;3.70;;;;;;;;;;5012442;28;20038;-49
2023/05/14 08:40:40;;;;;;;12.95;3.92;;;;;;;;;;5012612;28;20030;-48
2023/05/14 08:43:07;;;;;;;11.18;3.40;;;;;;;;;;4994922;28;20026;-48
2023/05/14 08:45:35;;;;;;;11.98;3.28;;;;;;;;;;5012575;28;20026;-47
2023/05/14 08:48:07;;;;;;;9.40;3.47;;;;;;;;;;4994860;28;20036;-48
2023/05/14 08:50:34;;;;;;;10.55;3.67;;;;;;;;;;5012168;28;20030;-54
2023/05/14 08:53:01;;;;;;;12.45;3.58;;;;;;;;;;5012365;28;20044;-48
2023/05/14 08:55:29;;;;;;;15.27;3.40;;;;;;;;;;5012332;28;20076;-45
2023/05/14 08:57:56;;;;;;;10.80;3.28;;;;;;;;;;5012044;28;20033;-47
2023/05/14 09:00:23;;;;;;;14.23;3.58;;;;;;;;;;5012305;28;20056;-48
2023/05/14 09:02:50;;;;;;;15.50;3.30;;;;;;;;;;5011750;28;20045;-45
2023/05/14 09:05:19;;;;;;;14.75;3.25;;;;;;;;;;5012274;28;20136;-50
2023/05/14 09:07:46;;;;;;;11.68;3.67;;;;;;;;;;5012197;28;20033;-48
2023/05/14 09:10:14;;;;;;;10.73;3.05;;;;;;;;;;5012020;28;20026;-45
2023/05/14 09:12:41;;;;;;;10.57;3.55;;;;;;;;;;5011735;28;20507;-47
2023/05/14 09:15:08;;;;;;;12.07;3.30;;;;;;;;;;5012035;28;20050;-47
2023/05/14 09:17:35;;;;;;;7.60;3.13;;;;;;;;;;5011903;28;20088;-45
2023/05/14 09:20:03;;;;;;;12.55;3.00;;;;;;;;;;5011934;28;20054;-45
2023/05/14 09:22:33;;;;;;;12.50;3.40;;;;;;;;;;5011756;28;20061;-46
2023/05/14 09:25:04;;;;;;;10.85;3.42;;;;;;;;;;5011627;28;20025;-48
2023/05/14 09:27:32;;;;;;;10.02;3.30;;;;;;;;;;5005121;22;20058;-37
2023/05/14 09:30:11;;;;;;;13.43;3.83;;;;;;;;;;4993759;28;20038;-36
2023/05/14 09:32:46;;;;;;;6.80;3.10;;;;;;;;;;4993036;28;20084;-35
2023/05/14 09:35:18;;;;;;;10.60;3.05;;;;;;;;;;4992860;28;20058;-35
2023/05/14 09:37:46;;;;;;;12.05;3.15;;;;;;;;;;4992755;28;20034;-36
2023/05/14 09:40:13;;;;;;;9.63;3.10;;;;;;;;;;4992650;28;20396;-35
2023/05/14 09:42:40;;;;;;;12.88;3.10;;;;;;;;;;4992257;28;20088;-36
2023/05/14 09:45:09;;;;;;;10.32;2.90;;;;;;;;;;4992732;28;20531;-37
2023/05/14 09:47:36;;;;;;;12.80;3.50;;;;;;;;;;4991950;28;20041;-37
2023/05/14 09:50:04;;;;;;;13.77;3.63;;;;;;;;;;4990045;28;20109;-36
2023/05/14 09:52:31;;;;;;;13.05;3.20;;;;;;;;;;4972457;28;20515;-37
2023/05/14 09:54:58;;;;;;;10.43;2.88;;;;;;;;;;4972423;28;20031;-37
2023/05/14 09:57:25;;;;;;;17.30;3.50;;;;;;;;;;4990783;28;20039;-37
2023/05/14 09:59:53;;;;;;;11.25;3.78;;;;;;;;;;4991736;28;20026;-37
2023/05/14 10:02:20;;;;;;;9.00;3.15;;;;;;;;;;4991667;28;20037;-35
2023/05/14 10:04:47;;;;;;;11.05;3.35;;;;;;;;;;4991425;28;20014;-36
2023/05/14 10:07:14;;;;;;;11.90;3.10;;;;;;;;;;4991208;28;20065;-35
2023/05/14 10:09:43;;;;;;;13.77;3.30;;;;;;;;;;4991600;28;20507;-35
2023/05/14 10:12:10;;;;;;;11.20;3.08;;;;;;;;;;4991662;28;20038;-37
2023/05/14 10:14:40;;;;;;;9.80;2.90;;;;;;;;;;4991717;28;20042;-35
2023/05/14 10:17:16;;;;;;;6.43;2.85;;;;;;;;;;4991241;28;20534;-35
2023/05/14 10:19:47;;;;;;;10.82;3.50;;;;;;;;;;4991384;28;20042;-35
2023/05/14 10:22:15;;;;;;;11.88;3.42;;;;;;;;;;4991463;28;20073;-37
2023/05/14 10:24:42;;;;;;;8.05;2.80;;;;;;;;;;4991569;28;20026;-37
2023/05/14 10:27:10;;;;;;;8.20;2.78;;;;;;;;;;4990865;28;20149;-35
2023/05/14 10:29:37;;;;;;;13.35;2.97;;;;;;;;;;4991365;28;20484;-35
2023/05/14 10:32:08;;;;;;;11.00;2.90;;;;;;;;;;4991559;28;20558;-37
2023/05/14 10:34:37;;;;;;;9.23;3.50;;;;;;;;;;4991429;28;20026;-37
2023/05/14 10:37:17;;;;;;;8.55;2.50;;;;;;;;;;4991034;28;20031;-37
2023/05/14 10:39:45;;;;;;;11.02;3.28;;;;;;;;;;4991375;28;20022;-37
2023/05/14 10:42:34;;;;;;;9.23;2.95;;;;;;;;;;4991272;28;20069;-38
2023/05/14 10:45:07;;;;;;;6.63;2.55;;;;;;;;;;4990867;28;20030;-35
2023/05/14 10:47:33;;;;;;;;;;;;;;;;;;5008550;28;20104;-37
2023/05/14 10:50:02;;;;;;;9.25;2.50;;;;;;;;;;5002310;28;19948;-35
2023/05/14 10:52:30;;;;;;;9.40;2.75;;;;;;;;;;4991117;28;20031;-35
2023/05/14 10:54:58;;;;;;;7.88;2.58;;;;;;;;;;4991816;28;20030;-35
2023/05/14 10:57:26;;;;;;;9.45;2.30;;;;;;;;;;4994808;28;20070;-37
2023/05/14 10:59:54;;;;;;;11.45;3.00;;;;;;;;;;4994751;28;20036;-37
2023/05/14 11:02:29;;;;;;;8.98;2.72;;;;;;;;;;4994687;28;20558;-35
2023/05/14 11:04:56;;;;;;;8.55;2.78;;;;;;;;;;4994958;28;20030;-35
2023/05/14 11:07:24;;;;;;;9.75;2.67;;;;;;;;;;4994355;28;20030;-37
2023/05/14 11:09:51;;;;;;;9.45;2.67;;;;;;;;;;4994832;28;20049;-37
2023/05/14 11:12:18;;;;;;;7.40;1.98;;;;;;;;;;4994688;28;20772;-37
2023/05/14 11:14:46;;;;;;;6.80;2.30;;;;;;;;;;4994667;28;20110;-37
2023/05/14 11:17:15;;;;;;;8.00;2.35;;;;;;;;;;4994054;28;20038;-35
2023/05/14 11:19:43;;;;;;;9.38;2.35;;;;;;;;;;4994714;28;20034;-35
2023/05/14 11:22:12;;;;;;;10.15;2.28;;;;;;;;;;5006489;28;20048;-36
2023/05/14 11:24:40;;;;;;;5.88;2.28;;;;;;;;;;5013974;28;20161;-35
2023/05/14 11:27:10;;;;;;;11.88;2.70;;;;;;;;;;5013245;28;20057;-35
2023/05/14 11:29:38;;;;;;;4.72;2.60;;;;;;;;;;5014102;28;20033;-35
2023/05/14 11:32:08;;;;;;;7.57;2.60;;;;;;;;;;5013636;28;20034;-36
2023/05/14 11:34:36;;;;;;;12.85;2.88;;;;;;;;;;5013851;28;20034;-37
2023/05/14 11:37:04;;;;;;;9.73;2.45;;;;;;;;;;5006145;28;20046;-37
2023/05/14 11:39:34;;;;;;;9.60;2.70;;;;;;;;;;4993952;28;20045;-37
2023/05/14 11:42:13;;;;;;;9.50;2.78;;;;;;;;;;4994063;28;20447;-35
2023/05/14 11:44:43;;;;;;;7.53;2.38;;;;;;;;;;4994178;28;20034;-35
2023/05/14 11:47:10;;;;;;;9.40;2.80;;;;;;;;;;4993968;28;20030;-37
2023/05/14 11:49:38;;;;;;;6.63;2.33;;;;;;;;;;4993639;28;20038;-37
2023/05/14 11:52:10;;;;;;;9.73;2.50;;;;;;;;;;4993992;28;20034;-37
2023/05/14 11:54:36;;;;;;;;;;;;;;;;;;4994399;28;20341;-35
2023/05/14 11:57:07;;;;;;;9.38;2.83;;;;;;;;;;4993853;28;19965;-37
2023/05/14 11:59:34;;;;;;;9.27;2.17;;;;;;;;;;4993813;28;20540;-37
2023/05/14 12:02:03;;;;;;;11.82;2.53;;;;;;;;;;4993714;28;20465;-35
2023/05/14 12:04:30;;;;;;;7.45;2.10;;;;;;;;;;4993816;28;20038;-35
2023/05/14 12:06:59;;;;;;;7.85;2.40;;;;;;;;;;4993346;28;20761;-38
2023/05/14 12:09:26;;;;;;;4.85;2.13;;;;;;;;;;4993910;28;20488;-35
2023/05/14 12:11:53;;;;;;;7.72;2.20;;;;;;;;;;4993624;28;20070;-35
2023/05/14 12:14:21;;;;;;;7.88;2.42;;;;;;;;;;4993692;28;20045;-35
2023/05/14 12:16:48;;;;;;;7.63;2.40;;;;;;;;;;4993342;28;20088;-35
2023/05/14 12:19:16;;;;;;;8.32;2.42;;;;;;;;;;4993642;28;20113;-35
2023/05/14 12:21:44;;;;;;;6.68;2.20;;;;;;;;;;4993373;28;20034;-37
2023/05/14 12:24:16;;;;;;;7.00;2.10;;;;;;;;;;4993386;28;20030;-37
2023/05/14 12:26:43;;;;;;;;;;;;;;;;;;4993590;28;20061;-35
2023/05/14 12:29:12;;;;;;;4.93;2.10;;;;;;;;;;4993472;28;19916;-35
2023/05/14 12:31:45;;;;;;;8.32;2.40;;;;;;;;;;4993439;28;20040;-37
2023/05/14 12:34:12;;;;;;;6.70;2.00;;;;;;;;;;4993359;28;20023;-37
2023/05/14 12:36:39;;;;;;;9.10;2.30;;;;;;;;;;4993142;28;20037;-35
2023/05/14 12:39:06;;;;;;;8.60;2.28;;;;;;;;;;4993188;28;20022;-35
2023/05/14 12:41:33;;;;;;;7.63;1.80;;;;;;;;;;4993191;28;20056;-37
2023/05/14 12:44:00;;;;;;;6.85;2.22;;;;;;;;;;4993172;28;20023;-37
2023/05/14 12:46:27;;;;;;;5.28;2.00;;;;;;;;;;4993010;28;20569;-37
2023/05/14 12:48:55;;;;;;;4.82;2.20;;;;;;;;;;4993044;28;20049;-37
2023/05/14 12:51:22;;;;;;;4.95;2.00;;;;;;;;;;4993091;28;20391;-37
2023/05/14 12:53:50;;;;;;;4.82;1.80;;;;;;;;;;4989764;28;20033;-37
2023/05/14 12:56:17;;;;;;;8.55;2.45;;;;;;;;;;4990854;28;20034;-35
2023/05/14 12:58:45;;;;;;;4.47;2.03;;;;;;;;;;4991879;28;20049;-38
2023/05/14 13:01:12;;;;;;;6.28;2.50;;;;;;;;;;4991913;28;20034;-37
2023/05/14 13:03:39;;;;;;;7.20;2.22;;;;;;;;;;4991943;28;20038;-37
2023/05/14 13:06:06;;;;;;;4.72;2.05;;;;;;;;;;4991284;28;20034;-37
2023/05/14 13:08:33;;;;;;;3.83;2.10;;;;;;;;;;4991248;28;20038;-34
2023/05/14 13:11:00;;;;;;;5.47;2.08;;;;;;;;;;4991689;28;20057;-37
2023/05/14 13:13:27;;;;;;;6.00;2.13;;;;;;;;;;4991079;28;20112;-36
2023/05/14 13:15:55;;;;;;;7.28;2.20;;;;;;;;;;4989851;28;20038;-37
2023/05/14 13:18:22;;;;;;;4.20;2.25;;;;;;;;;;4989399;28;20443;-34
2023/05/14 13:20:49;;;;;;;6.50;2.05;;;;;;;;;;4990877;28;20033;-37
2023/05/14 13:23:16;;;;;;;5.03;2.15;;;;;;;;;;4991516;28;20026;-38
2023/05/14 13:25:43;;;;;;;3.28;1.83;;;;;;;;;;4989668;28;20675;-34
2023/05/14 13:28:10;;;;;;;3.97;1.88;;;;;;;;;;4991348;28;20682;-35
2023/05/14 13:30:37;;;;;;;5.75;2.13;;;;;;;;;;4990989;28;20072;-34
2023/05/14 13:33:04;;;;;;;3.65;1.90;;;;;;;;;;4990558;28;20026;-34
2023/05/14 13:35:31;;;;;;;4.15;1.80;;;;;;;;;;4990409;28;20038;-35
2023/05/14 13:37:58;;;;;;;4.55;1.85;;;;;;;;;;4990580;28;20042;-35
2023/05/14 13:40:25;;;;;;;3.92;2.03;;;;;;;;;;4991240;28;20058;-37
2023/05/14 13:42:52;;;;;;;6.43;2.30;;;;;;;;;;4990577;28;20440;-36
2023/05/14 13:45:19;;;;;;;5.45;2.45;;;;;;;;;;4991043;28;20026;-40
2023/05/14 13:47:46;;;;;;;8.50;2.08;;;;;;;;;;4991767;28;20034;-34
2023/05/14 13:50:13;;;;;;;9.20;2.25;;;;;;;;;;4991151;28;20041;-35
2023/05/14 13:52:40;;;;;;;5.22;2.38;;;;;;;;;;4988606;28;20034;-40
2023/05/14 13:55:07;;;;;;;7.55;2.20;;;;;;;;;;4990742;28;20031;-34
2023/05/14 13:57:34;;;;;;;7.68;2.00;;;;;;;;;;4990307;28;20117;-36
2023/05/14 14:00:01;;;;;;;9.10;2.55;;;;;;;;;;4989487;28;20040;-36
2023/05/14 14:02:28;;;;;;;5.03;1.95;;;;;;;;;;4990513;28;20481;-35
2023/05/14 14:04:55;;;;;;;6.38;1.85;;;;;;;;;;4990458;28;20042;-35
2023/05/14 14:07:22;;;;;;;11.02;2.67;;;;;;;;;;4990492;28;20033;-37
2023/05/14 14:09:49;;;;;;;10.85;2.00;;;;;;;;;;4987482;28;20093;-34
2023/05/14 14:12:16;;;;;;;9.20;2.35;;;;;;;;;;4979532;28;20045;-37
2023/05/14 14:14:43;;;;;;;8.40;1.90;;;;;;;;;;4991403;28;20034;-36
2023/05/14 14:17:10;;;;;;;6.00;2.00;;;;;;;;;;4991720;28;20033;-36
2023/05/14 14:19:37;;;;;;;8.95;2.20;;;;;;;;;;4991751;28;20033;-36
2023/05/14 14:22:04;;;;;;;9.77;2.30;;;;;;;;;;4992083;28;20042;-34
2023/05/14 14:24:31;;;;;;;11.63;2.38;;;;;;;;;;4991862;28;20448;-35
2023/05/14 14:26:58;;;;;;;7.78;2.53;;;;;;;;;;4991711;28;20117;-34
2023/05/14 14:29:25;;;;;;;7.70;2.25;;;;;;;;;;4992618;28;20030;-40
2023/05/14 14:31:52;;;;;;;7.05;2.60;;;;;;;;;;4984610;28;20042;-34
2023/05/14 14:34:19;;;;;;;6.60;2.17;;;;;;;;;;4996747;28;20042;-37